createdAt,value
2022-10-09T00:01:48.732Z,2.80
2022-10-09T00:04:15.853Z,2.53
2022-10-09T00:06:42.967Z,2.90
2022-10-09T00:09:11.407Z,2.33
2022-10-09T00:11:38.659Z,2.33
2022-10-09T00:14:05.884Z,2.20
2022-10-09T00:16:33.239Z,2.45
2022-10-09T00:19:00.532Z,2.42
2022-10-09T00:21:29.528Z,2.20
2022-10-09T00:23:58.869Z,2.35
2022-10-09T00:26:28.459Z,2.63
2022-10-09T00:28:56.198Z,2.35
2022-10-09T00:31:23.893Z,2.40
2022-10-09T00:33:51.260Z,2.05
2022-10-09T00:36:20.154Z,2.38
2022-10-09T00:38:47.720Z,2.28
2022-10-09T00:41:17.809Z,2.30
2022-10-09T00:43:48.520Z,2.60
2022-10-09T00:46:28.419Z,2.50
2022-10-09T00:49:04.182Z,2.28
2022-10-09T00:51:33.594Z,2.40
2022-10-09T00:54:03.775Z,2.17
2022-10-09T00:56:31.049Z,2.65
2022-10-09T00:58:59.852Z,2.28
2022-10-09T01:01:27.216Z,2.35
2022-10-09T01:03:54.453Z,2.00
2022-10-09T01:06:32.228Z,2.22
2022-10-09T01:09:06.105Z,2.13
2022-10-09T01:11:41.301Z,2.50
2022-10-09T01:14:17.691Z,2.20
2022-10-09T01:16:51.165Z,2.10
2022-10-09T01:19:35.845Z,2.40
2022-10-09T01:22:13.471Z,2.33
2022-10-09T01:24:47.762Z,2.20
2022-10-09T01:27:17.894Z,2.25
2022-10-09T01:29:48.247Z,1.90
2022-10-09T01:32:19.809Z,2.00
2022-10-09T01:34:47.826Z,2.15
2022-10-09T01:37:17.423Z,1.90
2022-10-09T01:39:46.209Z,2.10
2022-10-09T01:42:15.188Z,1.85
2022-10-09T01:44:43.678Z,2.40
2022-10-09T01:47:15.080Z,2.00
2022-10-09T01:49:50.022Z,2.05
2022-10-09T01:52:40.413Z,2.40
2022-10-09T01:55:25.641Z,2.08
2022-10-09T02:00:26.212Z,2.28
2022-10-09T02:02:54.953Z,1.85
2022-10-09T02:05:24.873Z,2.10
2022-10-09T02:07:53.168Z,2.10
2022-10-09T02:10:21.924Z,2.10
2022-10-09T02:12:53.810Z,2.05
2022-10-09T02:15:24.208Z,1.85
2022-10-09T02:17:57.288Z,1.92
2022-10-09T02:20:30.107Z,1.65
2022-10-09T02:23:00.357Z,1.83
2022-10-09T02:25:28.400Z,1.77
2022-10-09T02:27:56.073Z,1.75
2022-10-09T02:30:26.894Z,2.22
2022-10-09T02:32:55.460Z,1.58
2022-10-09T02:35:22.562Z,2.00
2022-10-09T02:37:49.677Z,1.58
2022-10-09T02:40:16.813Z,1.80
2022-10-09T02:42:43.950Z,2.00
2022-10-09T02:45:11.225Z,1.85
2022-10-09T02:47:38.318Z,1.83
2022-10-09T02:50:08.360Z,2.05
2022-10-09T02:52:35.483Z,1.77
2022-10-09T02:55:02.707Z,1.80
2022-10-09T02:57:29.816Z,1.90
2022-10-09T02:59:56.921Z,1.90
2022-10-09T03:02:24.227Z,2.00
2022-10-09T03:04:51.374Z,2.00
2022-10-09T03:07:19.869Z,1.98
2022-10-09T03:09:46.973Z,2.00
2022-10-09T03:12:14.106Z,2.05
2022-10-09T03:14:41.324Z,1.70
2022-10-09T03:17:08.417Z,1.95
2022-10-09T03:19:35.500Z,1.77
2022-10-09T03:22:02.632Z,2.20
2022-10-09T03:24:31.088Z,1.65
2022-10-09T03:26:58.175Z,1.80
2022-10-09T03:29:25.305Z,1.65
2022-10-09T03:31:53.535Z,1.98
2022-10-09T03:34:20.904Z,2.08
2022-10-09T03:36:48.103Z,1.85
2022-10-09T03:39:15.229Z,1.85
2022-10-09T03:41:43.670Z,1.58
2022-10-09T03:44:10.794Z,1.88
2022-10-09T03:46:38.119Z,1.75
2022-10-09T03:49:05.257Z,1.80
2022-10-09T03:51:32.375Z,1.90
2022-10-09T03:53:59.498Z,2.00
2022-10-09T03:56:26.576Z,1.85
2022-10-09T03:58:55.129Z,1.63
2022-10-09T04:01:22.340Z,1.80
2022-10-09T04:03:49.517Z,1.77
2022-10-09T04:06:16.833Z,1.65
2022-10-09T04:08:43.933Z,1.63
2022-10-09T04:11:11.018Z,1.88
2022-10-09T04:13:38.276Z,1.60
2022-10-09T04:16:06.935Z,1.70
2022-10-09T04:18:34.046Z,1.77
2022-10-09T04:21:01.169Z,1.80
2022-10-09T04:23:28.322Z,1.55
2022-10-09T04:25:56.693Z,1.63
2022-10-09T04:28:24.128Z,1.60
2022-10-09T04:30:51.587Z,1.50
2022-10-09T04:33:20.629Z,1.60
2022-10-09T04:35:51.496Z,1.70
2022-10-09T04:38:19.510Z,1.90
2022-10-09T04:40:55.850Z,1.80
2022-10-09T04:43:23.108Z,1.77
2022-10-09T04:45:50.312Z,1.60
2022-10-09T04:48:17.446Z,1.65
2022-10-09T04:50:46.248Z,1.70
2022-10-09T04:53:13.671Z,1.77
2022-10-09T04:55:41.779Z,1.80
2022-10-09T04:58:09.281Z,1.60
2022-10-09T05:00:40.391Z,1.70
2022-10-09T05:03:07.695Z,1.80
2022-10-09T05:05:34.812Z,1.98
2022-10-09T05:08:03.626Z,1.60
2022-10-09T05:10:31.532Z,1.60
2022-10-09T05:12:58.807Z,1.77
2022-10-09T05:15:26.268Z,1.40
2022-10-09T05:17:53.521Z,2.10
2022-10-09T05:20:20.726Z,1.85
2022-10-09T05:22:48.216Z,1.67
2022-10-09T05:25:17.068Z,1.67
2022-10-09T05:27:44.173Z,2.15
2022-10-09T05:30:11.747Z,1.70
2022-10-09T05:32:38.871Z,1.70
2022-10-09T05:35:06.808Z,1.80
2022-10-09T05:37:33.919Z,1.48
2022-10-09T05:40:01.033Z,1.60
2022-10-09T05:42:29.472Z,1.40
2022-10-09T05:44:56.555Z,1.75
2022-10-09T05:47:23.707Z,1.60
2022-10-09T05:49:50.792Z,1.27
2022-10-09T05:52:17.866Z,1.65
2022-10-09T05:54:45.119Z,1.88
2022-10-09T05:57:12.224Z,1.35
2022-10-09T05:59:41.687Z,1.30
2022-10-09T06:02:09.217Z,1.27
2022-10-09T06:04:36.332Z,1.70
2022-10-09T06:07:03.446Z,1.40
2022-10-09T06:09:30.655Z,1.30
2022-10-09T06:11:57.795Z,2.33
2022-10-09T06:14:24.914Z,1.30
2022-10-09T06:16:53.521Z,1.65
2022-10-09T06:19:21.083Z,1.40
2022-10-09T06:21:48.444Z,1.55
2022-10-09T06:24:22.263Z,1.80
2022-10-09T06:26:52.832Z,1.88
2022-10-09T06:29:20.299Z,1.52
2022-10-09T06:31:47.385Z,1.55
2022-10-09T06:34:15.872Z,1.50
2022-10-09T06:36:43.035Z,1.23
2022-10-09T06:39:10.846Z,1.30
2022-10-09T06:41:38.004Z,1.35
2022-10-09T06:44:07.731Z,1.52
2022-10-09T06:46:37.253Z,1.55
2022-10-09T06:49:06.545Z,1.60
2022-10-09T06:51:35.763Z,1.33
2022-10-09T06:54:04.997Z,1.52
2022-10-09T06:56:32.470Z,1.83
2022-10-09T06:59:00.038Z,1.35
2022-10-09T07:01:28.874Z,1.48
2022-10-09T07:03:58.359Z,1.55
2022-10-09T07:06:27.547Z,1.60
2022-10-09T07:08:59.575Z,1.52
2022-10-09T07:11:28.592Z,1.88
2022-10-09T07:13:58.610Z,1.42
2022-10-09T07:16:28.063Z,1.63
2022-10-09T07:18:55.601Z,1.48
2022-10-09T07:21:22.900Z,1.63
2022-10-09T07:23:50.320Z,1.38
2022-10-09T07:26:21.280Z,2.33
2022-10-09T07:28:49.354Z,1.50
2022-10-09T07:31:17.426Z,1.40
2022-10-09T07:33:47.244Z,1.70
2022-10-09T07:36:14.452Z,2.03
2022-10-09T07:38:41.597Z,2.15
2022-10-09T07:41:11.459Z,2.03
2022-10-09T07:43:41.466Z,2.80
2022-10-09T07:46:12.251Z,2.25
2022-10-09T07:48:40.063Z,2.40
2022-10-09T07:51:09.024Z,2.72
2022-10-09T07:53:36.339Z,2.50
2022-10-09T07:56:03.540Z,2.42
2022-10-09T07:58:30.707Z,2.95
2022-10-09T08:01:05.151Z,2.40
2022-10-09T08:03:32.813Z,2.40
2022-10-09T08:05:59.991Z,2.75
2022-10-09T08:08:27.173Z,3.03
2022-10-09T08:10:54.370Z,2.90
2022-10-09T08:13:21.676Z,2.92
2022-10-09T08:15:48.909Z,2.67
2022-10-09T08:18:17.491Z,2.90
2022-10-09T08:20:45.002Z,2.70
2022-10-09T08:23:12.749Z,3.20
2022-10-09T08:25:39.864Z,3.03
2022-10-09T08:28:06.998Z,3.72
2022-10-09T08:30:34.232Z,3.17
2022-10-09T08:33:01.469Z,3.45
2022-10-09T08:35:33.727Z,3.70
2022-10-09T08:38:01.609Z,3.80
2022-10-09T08:40:37.764Z,3.70
2022-10-09T08:43:07.126Z,5.63
2022-10-09T08:45:35.751Z,8.02
2022-10-09T08:48:06.371Z,7.03
2022-10-09T08:50:38.927Z,6.45
2022-10-09T08:53:13.730Z,5.95
2022-10-09T08:55:45.423Z,5.68
2022-10-09T08:58:17.169Z,6.10
2022-10-09T09:00:46.400Z,5.88
2022-10-09T09:03:44.816Z,6.90
2022-10-09T09:06:21.900Z,6.30
2022-10-09T09:08:55.465Z,6.70
2022-10-09T09:11:34.093Z,7.45
2022-10-09T09:14:15.595Z,7.90
2022-10-09T09:16:50.379Z,6.72
2022-10-09T09:19:40.906Z,7.07
2022-10-09T09:22:13.274Z,7.35
2022-10-09T09:24:45.020Z,6.60
2022-10-09T09:27:14.785Z,6.93
2022-10-09T09:29:44.904Z,6.85
2022-10-09T09:32:18.199Z,6.05
2022-10-09T09:34:45.630Z,5.97
2022-10-09T09:37:14.367Z,5.43
2022-10-09T09:42:29.766Z,5.85
2022-10-09T09:45:00.341Z,5.57
2022-10-09T09:47:33.643Z,5.60
2022-10-09T09:50:03.491Z,5.67
2022-10-09T09:52:36.932Z,4.95
2022-10-09T09:55:04.970Z,5.90
2022-10-09T09:57:35.750Z,5.57
2022-10-09T10:00:23.869Z,5.07
2022-10-09T10:03:02.544Z,5.30
2022-10-09T10:05:36.093Z,5.53
2022-10-09T10:08:15.715Z,5.13
2022-10-09T10:10:47.304Z,5.10
2022-10-09T10:13:16.217Z,4.78
2022-10-09T10:15:49.563Z,4.72
2022-10-09T10:18:18.595Z,4.65
2022-10-09T10:20:48.183Z,4.75
2022-10-09T10:23:34.562Z,4.50
2022-10-09T10:26:06.753Z,4.78
2022-10-09T10:28:42.624Z,4.60
2022-10-09T10:31:18.483Z,4.47
2022-10-09T10:33:51.960Z,4.63
2022-10-09T10:36:19.344Z,4.32
2022-10-09T10:38:55.242Z,4.55
2022-10-09T10:41:27.399Z,4.40
2022-10-09T10:43:58.811Z,4.88
2022-10-09T10:46:29.319Z,4.97
2022-10-09T10:48:58.693Z,4.10
2022-10-09T10:51:50.228Z,4.10
2022-10-09T10:54:32.139Z,4.60
2022-10-09T10:57:08.818Z,4.55
2022-10-09T10:59:40.029Z,5.05
2022-10-09T11:02:33.921Z,4.70
2022-10-09T11:05:15.402Z,4.18
2022-10-09T11:07:50.226Z,4.03
2022-10-09T11:10:27.455Z,5.05
2022-10-09T11:13:01.097Z,4.97
2022-10-09T11:15:36.521Z,5.75
2022-10-09T11:18:23.222Z,4.63
2022-10-09T11:21:06.475Z,5.57
2022-10-09T11:23:47.315Z,5.68
2022-10-09T11:26:25.692Z,4.55
2022-10-09T11:29:01.352Z,4.75
2022-10-09T11:31:32.499Z,6.10
2022-10-09T11:34:05.068Z,4.88
2022-10-09T11:36:37.280Z,4.80
2022-10-09T11:39:06.396Z,4.90
2022-10-09T11:41:36.084Z,4.72
2022-10-09T11:44:35.915Z,4.45
2022-10-09T11:47:10.038Z,4.85
2022-10-09T11:52:18.842Z,4.03
2022-10-09T11:54:46.010Z,4.70
2022-10-09T11:57:15.489Z,4.10
2022-10-09T11:59:42.819Z,4.03
2022-10-09T12:02:24.224Z,4.30
2022-10-09T12:04:55.642Z,4.05
2022-10-09T12:07:30.224Z,4.13
2022-10-09T12:10:01.485Z,4.43
2022-10-09T12:12:30.810Z,3.80
2022-10-09T12:14:58.019Z,4.05
2022-10-09T12:17:33.962Z,4.45
2022-10-09T12:20:07.442Z,3.60
2022-10-09T12:22:37.201Z,3.70
2022-10-09T12:25:08.312Z,3.53
2022-10-09T12:27:40.928Z,3.75
2022-10-09T12:30:18.681Z,3.67
2022-10-09T12:32:50.935Z,3.30
2022-10-09T12:35:22.693Z,3.38
2022-10-09T12:37:49.877Z,3.33
2022-10-09T12:40:21.159Z,3.25
2022-10-09T12:42:51.381Z,3.42
2022-10-09T12:45:21.232Z,3.25
2022-10-09T12:47:48.893Z,3.30
2022-10-09T12:50:24.386Z,3.33
2022-10-09T12:52:53.123Z,3.45
2022-10-09T12:55:25.737Z,3.20
2022-10-09T12:57:56.294Z,3.65
2022-10-09T13:00:23.499Z,3.15
2022-10-09T13:02:51.163Z,3.08
2022-10-09T13:05:18.569Z,3.40
2022-10-09T13:07:52.410Z,3.05
2022-10-09T13:10:22.333Z,3.30
2022-10-09T13:12:51.769Z,2.90
2022-10-09T13:15:33.426Z,3.00
2022-10-09T13:18:01.394Z,2.67
2022-10-09T13:20:30.723Z,2.90
2022-10-09T13:23:00.054Z,2.97
2022-10-09T13:25:32.273Z,2.75
2022-10-09T13:27:59.439Z,2.88
2022-10-09T13:30:26.650Z,2.70
2022-10-09T13:32:55.194Z,2.67
2022-10-09T13:35:22.358Z,2.60
2022-10-09T13:37:49.820Z,2.70
2022-10-09T13:40:19.150Z,2.85
2022-10-09T13:42:52.778Z,2.83
2022-10-09T13:45:20.391Z,2.55
2022-10-09T13:47:47.845Z,2.63
2022-10-09T13:50:17.213Z,2.58
2022-10-09T13:52:44.362Z,2.72
2022-10-09T13:55:11.791Z,2.83
2022-10-09T13:57:38.937Z,2.85
2022-10-09T14:00:07.458Z,2.20
2022-10-09T14:02:34.565Z,2.40
2022-10-09T14:05:01.701Z,2.75
2022-10-09T14:07:30.374Z,3.08
2022-10-09T14:09:57.529Z,2.70
2022-10-09T14:12:25.118Z,2.42
2022-10-09T14:14:53.140Z,2.30
2022-10-09T14:17:20.383Z,2.53
2022-10-09T14:19:47.505Z,2.22
2022-10-09T14:22:14.702Z,2.45
2022-10-09T14:24:43.151Z,2.00
2022-10-09T14:27:10.419Z,2.13
2022-10-09T14:29:37.776Z,2.30
2022-10-09T14:32:05.433Z,2.50
2022-10-09T14:34:32.591Z,2.20
2022-10-09T14:36:59.702Z,2.42
2022-10-09T14:39:26.830Z,2.25
2022-10-09T14:41:55.312Z,2.25
2022-10-09T14:44:22.442Z,2.50
2022-10-09T14:46:49.574Z,2.30
2022-10-09T14:49:16.823Z,2.28
2022-10-09T14:51:43.956Z,2.42
2022-10-09T14:54:12.114Z,2.50
2022-10-09T14:56:39.678Z,2.40
2022-10-09T14:59:08.135Z,2.58
2022-10-09T15:01:35.774Z,1.88
2022-10-09T15:04:03.901Z,2.22
2022-10-09T15:06:31.253Z,2.00
2022-10-09T15:09:03.091Z,2.13
2022-10-09T15:11:33.861Z,1.83
2022-10-09T15:14:01.437Z,2.10
2022-10-09T15:16:29.984Z,1.67
2022-10-09T15:18:57.117Z,2.20
2022-10-09T15:21:26.868Z,1.80
2022-10-09T15:23:55.567Z,1.92
2022-10-09T15:26:23.284Z,2.13
2022-10-09T15:28:50.450Z,2.20
2022-10-09T15:31:22.252Z,2.08
2022-10-09T15:33:52.730Z,1.58
2022-10-09T15:36:20.517Z,2.17
2022-10-09T15:38:48.324Z,1.90
2022-10-09T15:41:22.965Z,1.80
2022-10-09T15:43:50.309Z,1.90
2022-10-09T15:46:17.688Z,1.90
2022-10-09T15:48:45.170Z,1.77
2022-10-09T15:51:13.681Z,1.90
2022-10-09T15:53:41.970Z,1.88
2022-10-09T15:56:11.835Z,2.00
2022-10-09T15:58:38.961Z,2.28
2022-10-09T16:01:08.245Z,1.80
2022-10-09T16:03:37.206Z,2.00
2022-10-09T16:06:07.414Z,1.98
2022-10-09T16:08:36.504Z,2.13
2022-10-09T16:11:05.641Z,1.90
2022-10-09T16:13:35.608Z,2.15
2022-10-09T16:16:04.601Z,1.70
2022-10-09T16:18:31.722Z,1.85
2022-10-09T16:21:04.240Z,2.40
2022-10-09T16:23:31.442Z,1.80
2022-10-09T16:26:01.408Z,1.98
2022-10-09T16:28:28.775Z,1.95
2022-10-09T16:30:56.236Z,2.25
2022-10-09T16:33:23.325Z,1.85
2022-10-09T16:35:50.637Z,1.88
2022-10-09T16:38:18.090Z,2.13
2022-10-09T16:41:02.561Z,2.00
2022-10-09T16:43:33.853Z,2.30
2022-10-09T16:46:12.639Z,1.95
2022-10-09T16:48:39.773Z,2.03
2022-10-09T16:51:11.129Z,1.92
2022-10-09T16:53:38.510Z,1.88
2022-10-09T16:56:10.005Z,1.95
2022-10-09T16:58:38.842Z,1.90
2022-10-09T17:01:09.799Z,2.05
2022-10-09T17:03:38.092Z,1.85
2022-10-09T17:06:07.614Z,1.90
2022-10-09T17:08:34.724Z,2.10
2022-10-09T17:11:02.005Z,2.17
2022-10-09T17:13:29.114Z,1.55
2022-10-09T17:15:57.610Z,1.83
2022-10-09T17:18:24.768Z,2.10
2022-10-09T17:20:51.894Z,2.20
2022-10-09T17:23:19.016Z,2.30
2022-10-09T17:25:46.155Z,2.00
2022-10-09T17:28:13.317Z,2.05
2022-10-09T17:30:40.839Z,1.90
2022-10-09T17:33:09.344Z,2.08
2022-10-09T17:35:39.507Z,2.13
2022-10-09T17:38:07.492Z,2.25
2022-10-09T17:40:37.652Z,2.40
2022-10-09T17:43:04.982Z,2.10
2022-10-09T17:45:39.132Z,2.45
2022-10-09T17:48:07.216Z,2.00
2022-10-09T17:50:36.409Z,2.05
2022-10-09T17:53:03.974Z,2.22
2022-10-09T17:55:31.728Z,2.03
2022-10-09T17:57:58.919Z,2.10
2022-10-09T18:00:26.084Z,1.98
2022-10-09T18:02:53.195Z,2.20
2022-10-09T18:05:20.294Z,2.10
2022-10-09T18:07:48.991Z,2.40
2022-10-09T18:10:16.512Z,2.20
2022-10-09T18:12:43.694Z,2.30
2022-10-09T18:15:11.052Z,2.45
2022-10-09T18:17:38.288Z,2.42
2022-10-09T18:20:06.381Z,2.45
2022-10-09T18:22:36.084Z,2.13
2022-10-09T18:25:05.700Z,2.60
2022-10-09T18:27:32.829Z,2.40
2022-10-09T18:29:59.975Z,2.55
2022-10-09T18:32:27.180Z,2.40
2022-10-09T18:34:54.346Z,2.42
2022-10-09T18:37:21.555Z,2.50
2022-10-09T18:39:48.668Z,2.30
2022-10-09T18:42:17.149Z,2.35
2022-10-09T18:44:44.263Z,3.05
2022-10-09T18:47:15.494Z,2.70
2022-10-09T18:49:46.862Z,2.63
2022-10-09T18:52:15.083Z,2.35
2022-10-09T18:54:45.735Z,2.58
2022-10-09T18:57:12.944Z,2.85
2022-10-09T18:59:42.050Z,2.70
2022-10-09T19:02:09.170Z,2.70
2022-10-09T19:04:36.282Z,2.65
2022-10-09T19:07:03.798Z,2.95
2022-10-09T19:09:30.925Z,2.83
2022-10-09T19:11:58.041Z,2.70
2022-10-09T19:14:25.145Z,2.83
2022-10-09T19:16:53.805Z,2.78
2022-10-09T19:19:20.911Z,2.97
2022-10-09T19:21:48.015Z,3.22
2022-10-09T19:24:15.131Z,2.60
2022-10-09T19:26:42.265Z,3.03
2022-10-09T19:29:09.733Z,3.00
2022-10-09T19:31:36.911Z,3.28
2022-10-09T19:34:05.902Z,2.78
2022-10-09T19:36:33.032Z,3.20
2022-10-09T19:39:00.460Z,3.08
2022-10-09T19:41:27.793Z,3.30
2022-10-09T19:43:55.025Z,3.40
2022-10-09T19:46:22.166Z,3.30
2022-10-09T19:48:49.359Z,3.17
2022-10-09T19:51:20.238Z,3.03
2022-10-09T19:53:48.090Z,3.25
2022-10-09T19:56:18.119Z,3.00
2022-10-09T19:58:47.297Z,3.22
2022-10-09T20:01:16.284Z,3.40
2022-10-09T20:03:43.837Z,3.22
2022-10-09T20:06:11.682Z,3.60
2022-10-09T20:08:42.308Z,3.58
2022-10-09T20:11:09.552Z,3.35
2022-10-09T20:13:38.150Z,3.33
2022-10-09T20:16:08.699Z,3.50
2022-10-09T20:18:35.921Z,3.03
2022-10-09T20:21:03.050Z,3.50
2022-10-09T20:23:30.359Z,3.40
2022-10-09T20:26:03.970Z,3.45
2022-10-09T20:28:32.205Z,3.42
2022-10-09T20:31:01.183Z,3.40
2022-10-09T20:33:28.281Z,4.18
2022-10-09T20:35:55.408Z,3.70
2022-10-09T20:38:25.723Z,3.38
2022-10-09T20:40:53.376Z,3.47
2022-10-09T20:43:21.849Z,3.28
2022-10-09T20:45:48.942Z,3.78
2022-10-09T20:48:16.105Z,3.40
2022-10-09T20:50:43.236Z,3.47
2022-10-09T20:53:10.802Z,3.33
2022-10-09T20:55:37.951Z,3.60
2022-10-09T20:58:05.089Z,3.40
2022-10-09T21:00:33.559Z,3.40
2022-10-09T21:03:00.735Z,3.47
2022-10-09T21:05:27.846Z,3.20
2022-10-09T21:07:54.948Z,3.28
2022-10-09T21:10:22.039Z,3.17
2022-10-09T21:12:49.560Z,3.50
2022-10-09T21:15:16.985Z,3.72
2022-10-09T21:17:45.463Z,3.30
2022-10-09T21:20:12.623Z,3.28
2022-10-09T21:22:39.705Z,3.08
2022-10-09T21:25:07.470Z,3.28
2022-10-09T21:27:34.710Z,3.40
2022-10-09T21:30:01.915Z,3.55
2022-10-09T21:32:29.086Z,3.50
2022-10-09T21:34:57.561Z,3.25
2022-10-09T21:37:24.669Z,3.38
2022-10-09T21:39:51.764Z,2.90
2022-10-09T21:42:18.995Z,3.50
2022-10-09T21:44:46.103Z,3.28
2022-10-09T21:47:16.303Z,3.50
2022-10-09T21:49:43.440Z,2.90
2022-10-09T21:52:12.041Z,3.20
2022-10-09T21:54:39.161Z,3.58
2022-10-09T21:57:06.393Z,3.03
2022-10-09T21:59:33.488Z,3.10
2022-10-09T22:02:00.578Z,2.90
2022-10-09T22:04:27.709Z,3.20
2022-10-09T22:06:55.001Z,3.00
2022-10-09T22:09:23.469Z,3.15
2022-10-09T22:11:50.587Z,3.00
2022-10-09T22:14:17.697Z,2.75
2022-10-09T22:16:44.797Z,2.97
2022-10-09T22:19:12.143Z,3.15
2022-10-09T22:21:39.248Z,3.08
2022-10-09T22:24:06.465Z,2.53
2022-10-09T22:26:35.392Z,2.85
2022-10-09T22:29:02.500Z,2.75
2022-10-09T22:31:29.624Z,3.05
2022-10-09T22:33:59.648Z,3.00
2022-10-09T22:36:28.671Z,2.65
2022-10-09T22:38:57.469Z,3.05
2022-10-09T22:41:26.548Z,3.00
2022-10-09T22:43:57.876Z,2.97
2022-10-09T22:46:26.625Z,2.78
2022-10-09T22:48:54.377Z,3.03
2022-10-09T22:51:22.771Z,3.05
2022-10-09T22:53:50.036Z,2.78
2022-10-09T22:56:19.552Z,2.60
2022-10-09T22:58:47.459Z,2.92
2022-10-09T23:01:19.903Z,2.90
2022-10-09T23:03:47.064Z,2.92
2022-10-09T23:06:16.432Z,2.90
2022-10-09T23:08:45.800Z,2.75
2022-10-09T23:11:13.568Z,2.55
2022-10-09T23:13:40.782Z,2.85
2022-10-09T23:16:10.501Z,2.53
2022-10-09T23:18:40.239Z,2.80
2022-10-09T23:21:10.660Z,2.97
2022-10-09T23:23:38.269Z,2.60
2022-10-09T23:26:06.646Z,2.60
2022-10-09T23:28:33.891Z,3.00
2022-10-09T23:31:01.871Z,2.70
2022-10-09T23:33:28.976Z,3.08
2022-10-09T23:35:57.678Z,2.90
2022-10-09T23:38:24.901Z,2.70
2022-10-09T23:40:56.007Z,2.30
2022-10-09T23:43:23.246Z,2.78
2022-10-09T23:45:50.378Z,2.33
2022-10-09T23:48:17.475Z,2.80
2022-10-09T23:50:44.703Z,2.83
2022-10-09T23:53:13.158Z,2.60
2022-10-09T23:55:40.259Z,2.53
2022-10-09T23:58:07.363Z,2.65
